sensor_id;sensor_type;location;lat;lon;timestamp;pressure;altitude;pressure_sealevel;temperature;humidity
14383;BME280;7275;50.328;8.720;2022-09-20T00:01:04;100165.38;;;17.86;41.25
14383;BME280;7275;50.328;8.720;2022-09-20T00:03:34;100169.09;;;17.84;41.57
14383;BME280;7275;50.328;8.720;2022-09-20T00:06:02;100173.66;;;17.82;41.38
14383;BME280;7275;50.328;8.720;2022-09-20T00:08:30;100166.78;;;17.78;41.47
14383;BME280;7275;50.328;8.720;2022-09-20T00:10:59;100168.88;;;17.73;41.50
14383;BME280;7275;50.328;8.720;2022-09-20T00:13:28;100162.16;;;17.66;41.72
14383;BME280;7275;50.328;8.720;2022-09-20T00:15:56;100156.31;;;17.59;42.03
14383;BME280;7275;50.328;8.720;2022-09-20T00:18:25;100165.47;;;17.55;41.83
14383;BME280;7275;50.328;8.720;2022-09-20T00:20:53;100157.78;;;17.49;42.02
14383;BME280;7275;50.328;8.720;2022-09-20T00:23:20;100168.81;;;17.43;42.21
14383;BME280;7275;50.328;8.720;2022-09-20T00:25:53;100161.16;;;17.37;42.22
14383;BME280;7275;50.328;8.720;2022-09-20T00:28:22;100164.97;;;17.33;42.02
14383;BME280;7275;50.328;8.720;2022-09-20T00:30:50;100164.34;;;17.28;42.25
14383;BME280;7275;50.328;8.720;2022-09-20T00:33:18;100164.53;;;17.25;42.36
14383;BME280;7275;50.328;8.720;2022-09-20T00:35:47;100155.66;;;17.24;42.28
14383;BME280;7275;50.328;8.720;2022-09-20T00:38:14;100161.94;;;17.23;42.51
14383;BME280;7275;50.328;8.720;2022-09-20T00:40:43;100159.34;;;17.22;42.40
14383;BME280;7275;50.328;8.720;2022-09-20T00:43:13;100164.91;;;17.19;42.60
14383;BME280;7275;50.328;8.720;2022-09-20T00:45:43;100166.69;;;17.18;42.70
14383;BME280;7275;50.328;8.720;2022-09-20T00:48:15;100165.81;;;17.18;42.88
14383;BME280;7275;50.328;8.720;2022-09-20T00:50:48;100170.31;;;17.17;42.62
14383;BME280;7275;50.328;8.720;2022-09-20T00:53:20;100170.13;;;17.20;42.57
14383;BME280;7275;50.328;8.720;2022-09-20T00:55:54;100170.91;;;17.22;42.53
14383;BME280;7275;50.328;8.720;2022-09-20T00:58:23;100167.28;;;17.23;42.50
14383;BME280;7275;50.328;8.720;2022-09-20T01:00:54;100167.28;;;17.23;42.83
14383;BME280;7275;50.328;8.720;2022-09-20T01:03:24;100170.81;;;17.24;42.68
14383;BME280;7275;50.328;8.720;2022-09-20T01:06:00;100171.69;;;17.24;42.52
14383;BME280;7275;50.328;8.720;2022-09-20T01:08:30;100170.72;;;17.25;42.74
14383;BME280;7275;50.328;8.720;2022-09-20T01:10:58;100173.34;;;17.27;42.64
14383;BME280;7275;50.328;8.720;2022-09-20T01:13:26;100171.59;;;17.26;42.74
14383;BME280;7275;50.328;8.720;2022-09-20T01:15:56;100171.69;;;17.24;42.89
14383;BME280;7275;50.328;8.720;2022-09-20T01:18:26;100160.31;;;17.21;43.05
14383;BME280;7275;50.328;8.720;2022-09-20T01:20:55;100164.91;;;17.19;43.03
14383;BME280;7275;50.328;8.720;2022-09-20T01:23:32;100172.91;;;17.19;43.01
14383;BME280;7275;50.328;8.720;2022-09-20T01:26:28;100166.94;;;17.14;43.06
14383;BME280;7275;50.328;8.720;2022-09-20T01:29:09;100166.09;;;17.13;43.23
14383;BME280;7275;50.328;8.720;2022-09-20T01:31:43;100168.75;;;17.13;43.28
14383;BME280;7275;50.328;8.720;2022-09-20T01:34:13;100169.63;;;17.14;43.07
14383;BME280;7275;50.328;8.720;2022-09-20T01:36:48;100167.81;;;17.14;43.12
14383;BME280;7275;50.328;8.720;2022-09-20T01:39:23;100164.28;;;17.14;43.24
14383;BME280;7275;50.328;8.720;2022-09-20T01:41:57;100166.19;;;17.12;43.20
14383;BME280;7275;50.328;8.720;2022-09-20T01:44:31;100163.50;;;17.12;43.56
14383;BME280;7275;50.328;8.720;2022-09-20T01:47:08;100163.59;;;17.10;43.32
14383;BME280;7275;50.328;8.720;2022-09-20T01:49:44;100162.81;;;17.08;43.40
14383;BME280;7275;50.328;8.720;2022-09-20T02:02:24;100154.47;;;16.83;43.30
14383;BME280;7275;50.328;8.720;2022-09-20T02:05:09;100161.69;;;16.81;43.34
14383;BME280;7275;50.328;8.720;2022-09-20T02:07:56;100150.31;;;16.77;43.46
14383;BME280;7275;50.328;8.720;2022-09-20T02:10:50;100147.88;;;16.73;43.37
14383;BME280;7275;50.328;8.720;2022-09-20T02:13:28;100153.41;;;16.70;43.39
14383;BME280;7275;50.328;8.720;2022-09-20T02:16:19;100160.00;;;16.63;43.23
14383;BME280;7275;50.328;8.720;2022-09-20T02:19:23;100147.97;;;16.56;43.52
14383;BME280;7275;50.328;8.720;2022-09-20T02:22:04;100158.09;;;16.49;43.58
14383;BME280;7275;50.328;8.720;2022-09-20T02:24:40;100166.22;;;16.46;43.53
14383;BME280;7275;50.328;8.720;2022-09-20T02:27:22;100161.13;;;16.42;43.67
14383;BME280;7275;50.328;8.720;2022-09-20T02:29:59;100162.25;;;16.38;43.67
14383;BME280;7275;50.328;8.720;2022-09-20T02:32:45;100165.97;;;16.35;43.71
14383;BME280;7275;50.328;8.720;2022-09-20T02:35:36;100167.13;;;16.30;43.57
14383;BME280;7275;50.328;8.720;2022-09-20T02:38:14;100170.00;;;16.27;43.82
14383;BME280;7275;50.328;8.720;2022-09-20T02:40:55;100170.13;;;16.24;43.93
14383;BME280;7275;50.328;8.720;2022-09-20T02:43:33;100158.78;;;16.20;43.78
14383;BME280;7275;50.328;8.720;2022-09-20T02:46:07;100159.78;;;16.18;43.91
14383;BME280;7275;50.328;8.720;2022-09-20T02:48:41;100155.47;;;16.15;44.01
14383;BME280;7275;50.328;8.720;2022-09-20T02:51:19;100153.75;;;16.14;44.10
14383;BME280;7275;50.328;8.720;2022-09-20T02:54:00;100156.56;;;16.11;44.21
14383;BME280;7275;50.328;8.720;2022-09-20T02:56:36;100157.53;;;16.10;44.19
14383;BME280;7275;50.328;8.720;2022-09-20T02:59:15;100165.59;;;16.09;44.13
14383;BME280;7275;50.328;8.720;2022-09-20T03:01:51;100164.75;;;16.08;44.44
14383;BME280;7275;50.328;8.720;2022-09-20T03:04:33;100160.34;;;16.07;44.22
14383;BME280;7275;50.328;8.720;2022-09-20T03:07:11;100157.69;;;16.07;44.06
14383;BME280;7275;50.328;8.720;2022-09-20T03:10:00;100164.03;;;16.05;43.91
14383;BME280;7275;50.328;8.720;2022-09-20T03:12:39;100159.47;;;16.07;44.07
14383;BME280;7275;50.328;8.720;2022-09-20T03:15:21;100168.53;;;16.04;43.99
14383;BME280;7275;50.328;8.720;2022-09-20T03:17:59;100169.38;;;16.05;43.91
14383;BME280;7275;50.328;8.720;2022-09-20T03:20:39;100162.31;;;16.04;43.87
14383;BME280;7275;50.328;8.720;2022-09-20T03:23:24;100164.13;;;16.03;44.16
14383;BME280;7275;50.328;8.720;2022-09-20T03:26:05;100167.72;;;16.02;44.03
14383;BME280;7275;50.328;8.720;2022-09-20T03:28:53;100163.34;;;16.01;44.07
14383;BME280;7275;50.328;8.720;2022-09-20T03:31:33;100171.44;;;15.99;44.09
14383;BME280;7275;50.328;8.720;2022-09-20T03:34:13;100177.69;;;15.98;44.13
14383;BME280;7275;50.328;8.720;2022-09-20T03:36:51;100174.25;;;15.96;44.10
14383;BME280;7275;50.328;8.720;2022-09-20T03:39:40;100172.53;;;15.95;44.10
14383;BME280;7275;50.328;8.720;2022-09-20T03:42:13;100165.47;;;15.94;44.23
14383;BME280;7275;50.328;8.720;2022-09-20T03:45:04;100171.75;;;15.93;44.20
14383;BME280;7275;50.328;8.720;2022-09-20T03:47:59;100171.81;;;15.92;44.21
14383;BME280;7275;50.328;8.720;2022-09-20T03:50:39;100169.09;;;15.93;44.08
14383;BME280;7275;50.328;8.720;2022-09-20T03:53:40;100178.97;;;15.91;44.29
14383;BME280;7275;50.328;8.720;2022-09-20T03:56:24;100170.09;;;15.91;44.28
14383;BME280;7275;50.328;8.720;2022-09-20T03:59:13;100178.09;;;15.91;44.33
14383;BME280;7275;50.328;8.720;2022-09-20T04:02:15;100172.75;;;15.91;44.35
14383;BME280;7275;50.328;8.720;2022-09-20T04:04:50;100176.13;;;15.94;44.27
14383;BME280;7275;50.328;8.720;2022-09-20T04:07:22;100182.16;;;15.98;44.36
14383;BME280;7275;50.328;8.720;2022-09-20T04:10:23;100191.81;;;16.00;44.36
14383;BME280;7275;50.328;8.720;2022-09-20T04:13:13;100187.19;;;16.04;44.13
14383;BME280;7275;50.328;8.720;2022-09-20T04:15:52;100199.44;;;16.08;44.15
14383;BME280;7275;50.328;8.720;2022-09-20T04:18:29;100198.31;;;16.12;44.23
14383;BME280;7275;50.328;8.720;2022-09-20T04:21:05;100191.94;;;16.15;44.07
14383;BME280;7275;50.328;8.720;2022-09-20T04:23:41;100197.13;;;16.18;43.87
14383;BME280;7275;50.328;8.720;2022-09-20T04:26:13;100193.44;;;16.20;44.06
14383;BME280;7275;50.328;8.720;2022-09-20T04:28:46;100197.91;;;16.20;43.92
14383;BME280;7275;50.328;8.720;2022-09-20T04:31:22;100197.91;;;16.20;44.04
14383;BME280;7275;50.328;8.720;2022-09-20T04:33:54;100198.00;;;16.18;43.88
14383;BME280;7275;50.328;8.720;2022-09-20T04:36:35;100191.88;;;16.16;44.07
14383;BME280;7275;50.328;8.720;2022-09-20T04:39:11;100201.69;;;16.16;44.25
14383;BME280;7275;50.328;8.720;2022-09-20T04:45:10;100191.44;;;16.08;44.14
14383;BME280;7275;50.328;8.720;2022-09-20T04:47:58;100200.44;;;16.06;44.30
14383;BME280;7275;50.328;8.720;2022-09-20T04:50:52;100198.88;;;16.02;44.35
14383;BME280;7275;50.328;8.720;2022-09-20T04:53:56;100206.25;;;15.96;44.39
14383;BME280;7275;50.328;8.720;2022-09-20T04:56:40;100204.59;;;15.94;44.47
14383;BME280;7275;50.328;8.720;2022-09-20T04:59:23;100214.56;;;15.90;44.46
14383;BME280;7275;50.328;8.720;2022-09-20T05:05:25;100215.78;;;15.83;44.70
14383;BME280;7275;50.328;8.720;2022-09-20T05:11:24;100219.50;;;15.81;44.55
14383;BME280;7275;50.328;8.720;2022-09-20T05:14:05;100219.56;;;15.79;44.64
14383;BME280;7275;50.328;8.720;2022-09-20T05:16:48;100220.53;;;15.78;44.57
14383;BME280;7275;50.328;8.720;2022-09-20T05:19:31;100209.94;;;15.77;44.75
14383;BME280;7275;50.328;8.720;2022-09-20T05:22:21;100220.59;;;15.77;44.74
14383;BME280;7275;50.328;8.720;2022-09-20T05:25:19;100225.06;;;15.76;44.52
14383;BME280;7275;50.328;8.720;2022-09-20T05:27:54;100232.09;;;15.77;44.68
14383;BME280;7275;50.328;8.720;2022-09-20T05:30:30;100226.78;;;15.77;44.67
14383;BME280;7275;50.328;8.720;2022-09-20T05:33:09;100234.53;;;15.82;44.81
14383;BME280;7275;50.328;8.720;2022-09-20T05:35:43;100235.31;;;15.84;44.71
14383;BME280;7275;50.328;8.720;2022-09-20T05:38:22;100239.66;;;15.86;44.72
14383;BME280;7275;50.328;8.720;2022-09-20T05:41:03;100247.50;;;15.89;44.77
14383;BME280;7275;50.328;8.720;2022-09-20T05:43:34;100241.09;;;15.93;44.85
14383;BME280;7275;50.328;8.720;2022-09-20T05:46:15;100242.56;;;15.99;44.83
14383;BME280;7275;50.328;8.720;2022-09-20T05:48:54;100245.69;;;16.07;44.75
14383;BME280;7275;50.328;8.720;2022-09-20T05:51:40;100254.25;;;16.14;44.91
14383;BME280;7275;50.328;8.720;2022-09-20T05:54:23;100254.72;;;16.22;44.81
14383;BME280;7275;50.328;8.720;2022-09-20T05:57:01;100258.81;;;16.29;44.90
14383;BME280;7275;50.328;8.720;2022-09-20T05:59:43;100258.41;;;16.36;44.92
14383;BME280;7275;50.328;8.720;2022-09-20T06:02:27;100266.00;;;16.44;44.92
14383;BME280;7275;50.328;8.720;2022-09-20T06:05:01;100259.53;;;16.49;44.83
14383;BME280;7275;50.328;8.720;2022-09-20T06:07:41;100262.66;;;16.57;44.83
14383;BME280;7275;50.328;8.720;2022-09-20T06:10:38;100269.41;;;16.64;44.72
14383;BME280;7275;50.328;8.720;2022-09-20T06:13:22;100263.66;;;16.72;44.71
14383;BME280;7275;50.328;8.720;2022-09-20T06:15:58;100257.88;;;16.79;44.58
14383;BME280;7275;50.328;8.720;2022-09-20T06:18:30;100270.66;;;16.90;44.75
14383;BME280;7275;50.328;8.720;2022-09-20T06:21:07;100269.22;;;17.00;44.72
14383;BME280;7275;50.328;8.720;2022-09-20T06:23:35;100274.16;;;17.08;44.78
14383;BME280;7275;50.328;8.720;2022-09-20T06:26:09;100278.06;;;17.18;44.55
14383;BME280;7275;50.328;8.720;2022-09-20T06:28:45;100269.59;;;17.25;44.49
14383;BME280;7275;50.328;8.720;2022-09-20T06:31:13;100274.53;;;17.33;44.31
14383;BME280;7275;50.328;8.720;2022-09-20T06:33:45;100273.41;;;17.37;44.17
14383;BME280;7275;50.328;8.720;2022-09-20T06:36:18;100285.03;;;17.36;44.41
14383;BME280;7275;50.328;8.720;2022-09-20T06:39:14;100285.03;;;17.36;44.36
14383;BME280;7275;50.328;8.720;2022-09-20T06:42:02;100291.94;;;17.40;44.43
14383;BME280;7275;50.328;8.720;2022-09-20T06:44:31;100292.56;;;17.45;44.19
14383;BME280;7275;50.328;8.720;2022-09-20T06:46:59;100291.31;;;17.52;44.10
14383;BME280;7275;50.328;8.720;2022-09-20T06:49:26;100291.78;;;17.58;43.98
14383;BME280;7275;50.328;8.720;2022-09-20T06:51:54;100284.66;;;17.59;44.06
14383;BME280;7275;50.328;8.720;2022-09-20T06:54:22;100289.13;;;17.58;44.37
14383;BME280;7275;50.328;8.720;2022-09-20T06:56:52;100286.44;;;17.58;44.19
14383;BME280;7275;50.328;8.720;2022-09-20T06:59:21;100294.56;;;17.57;44.27
14383;BME280;7275;50.328;8.720;2022-09-20T07:01:48;100283.97;;;17.55;44.43
14383;BME280;7275;50.328;8.720;2022-09-20T07:04:16;100288.63;;;17.52;44.47
14383;BME280;7275;50.328;8.720;2022-09-20T07:06:43;100291.13;;;17.55;44.53
14383;BME280;7275;50.328;8.720;2022-09-20T07:09:11;100284.84;;;17.56;44.70
14383;BME280;7275;50.328;8.720;2022-09-20T07:11:38;100283.47;;;17.65;44.61
14383;BME280;7275;50.328;8.720;2022-09-20T07:14:06;100288.47;;;17.71;44.61
14383;BME280;7275;50.328;8.720;2022-09-20T07:16:35;100303.03;;;17.81;44.63
14383;BME280;7275;50.328;8.720;2022-09-20T07:19:03;100284.56;;;17.92;44.50
14383;BME280;7275;50.328;8.720;2022-09-20T07:21:31;100299.00;;;18.03;44.29
14383;BME280;7275;50.328;8.720;2022-09-20T07:23:59;100289.75;;;18.09;44.27
14383;BME280;7275;50.328;8.720;2022-09-20T07:26:28;100296.38;;;18.17;44.37
14383;BME280;7275;50.328;8.720;2022-09-20T07:28:58;100286.19;;;18.24;44.41
14383;BME280;7275;50.328;8.720;2022-09-20T07:31:27;100289.09;;;18.35;44.74
14383;BME280;7275;50.328;8.720;2022-09-20T07:33:56;100278.44;;;18.49;44.50
14383;BME280;7275;50.328;8.720;2022-09-20T07:36:24;100284.78;;;18.62;44.26
14383;BME280;7275;50.328;8.720;2022-09-20T07:38:51;100278.69;;;18.74;44.30
14383;BME280;7275;50.328;8.720;2022-09-20T07:41:19;100283.28;;;18.86;44.05
14383;BME280;7275;50.328;8.720;2022-09-20T07:43:48;100275.44;;;18.97;43.65
14383;BME280;7275;50.328;8.720;2022-09-20T07:46:16;100282.69;;;19.09;43.42
14383;BME280;7275;50.328;8.720;2022-09-20T07:48:48;100279.25;;;19.22;43.36
14383;BME280;7275;50.328;8.720;2022-09-20T07:51:17;100282.09;;;19.33;42.99
14383;BME280;7275;50.328;8.720;2022-09-20T07:53:44;100282.97;;;19.47;42.96
14383;BME280;7275;50.328;8.720;2022-09-20T07:56:13;100294.13;;;19.68;42.91
14383;BME280;7275;50.328;8.720;2022-09-20T07:58:41;100296.19;;;19.91;42.84
14383;BME280;7275;50.328;8.720;2022-09-20T08:01:16;100293.03;;;20.11;42.53
14383;BME280;7275;50.328;8.720;2022-09-20T08:03:46;100290.00;;;20.30;42.44
14383;BME280;7275;50.328;8.720;2022-09-20T08:06:14;100290.47;;;20.49;42.05
14383;BME280;7275;50.328;8.720;2022-09-20T08:08:44;100284.03;;;20.64;41.84
14383;BME280;7275;50.328;8.720;2022-09-20T08:11:14;100297.28;;;20.80;41.56
14383;BME280;7275;50.328;8.720;2022-09-20T08:13:43;100290.81;;;20.95;41.35
14383;BME280;7275;50.328;8.720;2022-09-20T08:16:31;100296.75;;;21.12;41.41
14383;BME280;7275;50.328;8.720;2022-09-20T08:19:00;100307.94;;;21.31;40.85
14383;BME280;7275;50.328;8.720;2022-09-20T08:21:30;100302.28;;;21.47;40.54
14383;BME280;7275;50.328;8.720;2022-09-20T08:23:59;100297.75;;;21.60;40.42
14383;BME280;7275;50.328;8.720;2022-09-20T08:26:29;100304.72;;;21.75;40.32
14383;BME280;7275;50.328;8.720;2022-09-20T08:28:58;100303.81;;;21.87;39.83
14383;BME280;7275;50.328;8.720;2022-09-20T08:31:28;100297.97;;;21.93;39.44
14383;BME280;7275;50.328;8.720;2022-09-20T08:34:02;100306.22;;;22.03;39.59
14383;BME280;7275;50.328;8.720;2022-09-20T08:36:33;100303.72;;;22.12;39.01
14383;BME280;7275;50.328;8.720;2022-09-20T08:39:04;100309.38;;;22.20;38.91
14383;BME280;7275;50.328;8.720;2022-09-20T08:41:53;100302.97;;;22.34;38.42
14383;BME280;7275;50.328;8.720;2022-09-20T08:44:24;100293.81;;;22.48;38.33
14383;BME280;7275;50.328;8.720;2022-09-20T08:47:01;100299.88;;;22.62;38.48
14383;BME280;7275;50.328;8.720;2022-09-20T08:49:31;100300.75;;;22.74;38.33
14383;BME280;7275;50.328;8.720;2022-09-20T08:51:59;100307.91;;;22.86;37.85
14383;BME280;7275;50.328;8.720;2022-09-20T08:54:31;100298.72;;;22.99;37.95
14383;BME280;7275;50.328;8.720;2022-09-20T08:57:01;100303.06;;;23.13;37.45
14383;BME280;7275;50.328;8.720;2022-09-20T08:59:32;100302.66;;;23.18;37.18
14383;BME280;7275;50.328;8.720;2022-09-20T09:02:00;100299.84;;;23.19;37.33
14383;BME280;7275;50.328;8.720;2022-09-20T09:04:33;100304.16;;;23.22;37.20
14383;BME280;7275;50.328;8.720;2022-09-20T09:07:02;100306.84;;;23.22;36.98
14383;BME280;7275;50.328;8.720;2022-09-20T09:09:32;100307.81;;;23.21;37.09
14383;BME280;7275;50.328;8.720;2022-09-20T09:12:03;100311.16;;;23.13;37.03
14383;BME280;7275;50.328;8.720;2022-09-20T09:14:33;100318.84;;;23.07;37.01
14383;BME280;7275;50.328;8.720;2022-09-20T09:17:21;100323.25;;;22.96;37.19
14383;BME280;7275;50.328;8.720;2022-09-20T09:19:54;100319.09;;;22.92;36.97
14383;BME280;7275;50.328;8.720;2022-09-20T09:22:24;100325.56;;;22.90;37.09
14383;BME280;7275;50.328;8.720;2022-09-20T09:25:21;100326.44;;;22.90;37.35
14383;BME280;7275;50.328;8.720;2022-09-20T09:27:52;100315.16;;;22.96;36.53
14383;BME280;7275;50.328;8.720;2022-09-20T09:30:22;100314.69;;;23.02;36.37
14383;BME280;7275;50.328;8.720;2022-09-20T09:32:51;100319.81;;;23.05;36.61
14383;BME280;7275;50.328;8.720;2022-09-20T09:35:26;100309.66;;;23.09;36.14
14383;BME280;7275;50.328;8.720;2022-09-20T09:37:56;100314.06;;;23.10;36.28
14383;BME280;7275;50.328;8.720;2022-09-20T09:40:26;100313.94;;;23.12;36.41
14383;BME280;7275;50.328;8.720;2022-09-20T09:42:56;100319.47;;;23.10;36.14
14383;BME280;7275;50.328;8.720;2022-09-20T09:45:30;100309.41;;;23.12;36.05
14383;BME280;7275;50.328;8.720;2022-09-20T09:48:00;100317.00;;;23.18;36.28
14383;BME280;7275;50.328;8.720;2022-09-20T09:50:30;100308.34;;;23.26;35.84
14383;BME280;7275;50.328;8.720;2022-09-20T09:53:00;100308.69;;;23.32;35.77
14383;BME280;7275;50.328;8.720;2022-09-20T09:55:45;100306.63;;;23.36;35.81
14383;BME280;7275;50.328;8.720;2022-09-20T09:58:25;100304.16;;;23.33;36.02
14383;BME280;7275;50.328;8.720;2022-09-20T10:00:57;100302.53;;;23.30;35.77
14383;BME280;7275;50.328;8.720;2022-09-20T10:03:37;100307.09;;;23.30;35.65
14383;BME280;7275;50.328;8.720;2022-09-20T10:06:19;100306.97;;;23.31;35.90
14383;BME280;7275;50.328;8.720;2022-09-20T10:09:07;100306.88;;;23.33;35.76
14383;BME280;7275;50.328;8.720;2022-09-20T10:11:51;100306.38;;;23.39;35.64
14383;BME280;7275;50.328;8.720;2022-09-20T10:14:34;100302.34;;;23.44;35.75
14383;BME280;7275;50.328;8.720;2022-09-20T10:17:20;100300.75;;;23.53;35.45
14383;BME280;7275;50.328;8.720;2022-09-20T10:20:04;100287.47;;;23.61;35.82
14383;BME280;7275;50.328;8.720;2022-09-20T10:22:40;100286.97;;;23.67;35.44
14383;BME280;7275;50.328;8.720;2022-09-20T10:25:38;100294.69;;;23.71;35.59
14383;BME280;7275;50.328;8.720;2022-09-20T10:28:23;100290.38;;;23.80;35.52
14383;BME280;7275;50.328;8.720;2022-09-20T10:31:03;100281.66;;;24.72;35.43
14383;BME280;7275;50.328;8.720;2022-09-20T10:33:37;100286.41;;;26.09;34.79
14383;BME280;7275;50.328;8.720;2022-09-20T10:36:16;100283.41;;;26.51;33.60
14383;BME280;7275;50.328;8.720;2022-09-20T10:38:50;100278.84;;;26.51;33.44
14383;BME280;7275;50.328;8.720;2022-09-20T10:41:32;100279.84;;;26.31;33.44
14383;BME280;7275;50.328;8.720;2022-09-20T10:44:33;100285.06;;;25.94;33.17
14383;BME280;7275;50.328;8.720;2022-09-20T10:47:11;100300.91;;;25.50;32.69
14383;BME280;7275;50.328;8.720;2022-09-20T10:49:42;100297.97;;;25.02;32.99
14383;BME280;7275;50.328;8.720;2022-09-20T10:52:33;100306.72;;;24.53;33.44
14383;BME280;7275;50.328;8.720;2022-09-20T10:55:15;100307.78;;;24.09;34.09
14383;BME280;7275;50.328;8.720;2022-09-20T11:00:54;100312.81;;;23.03;34.99
14383;BME280;7275;50.328;8.720;2022-09-20T11:03:38;100315.50;;;22.57;35.75
14383;BME280;7275;50.328;8.720;2022-09-20T11:06:14;100318.88;;;22.13;36.16
14383;BME280;7275;50.328;8.720;2022-09-20T11:08:46;100313.41;;;21.79;36.56
14383;BME280;7275;50.328;8.720;2022-09-20T11:11:19;100313.81;;;21.49;37.14
14383;BME280;7275;50.328;8.720;2022-09-20T11:13:57;100313.63;;;21.27;37.23
14383;BME280;7275;50.328;8.720;2022-09-20T11:16:33;100312.91;;;21.12;37.98
14383;BME280;7275;50.328;8.720;2022-09-20T11:19:05;100314.09;;;21.08;38.26
14383;BME280;7275;50.328;8.720;2022-09-20T11:21:42;100320.63;;;21.42;38.76
14383;BME280;7275;50.328;8.720;2022-09-20T11:24:15;100319.50;;;22.41;38.32
14383;BME280;7275;50.328;8.720;2022-09-20T11:26:48;100305.66;;;24.02;37.55
14383;BME280;7275;50.328;8.720;2022-09-20T11:29:25;100302.72;;;25.79;35.70
14383;BME280;7275;50.328;8.720;2022-09-20T11:32:01;100297.16;;;27.24;33.94
14383;BME280;7275;50.328;8.720;2022-09-20T11:34:36;100291.28;;;27.83;33.29
14383;BME280;7275;50.328;8.720;2022-09-20T11:37:08;100294.91;;;28.54;32.96
14383;BME280;7275;50.328;8.720;2022-09-20T11:39:38;100294.38;;;28.51;32.16
14383;BME280;7275;50.328;8.720;2022-09-20T11:42:14;100299.44;;;28.28;31.76
14383;BME280;7275;50.328;8.720;2022-09-20T11:44:42;100305.13;;;27.90;31.72
14383;BME280;7275;50.328;8.720;2022-09-20T11:47:16;100288.91;;;27.43;31.82
14383;BME280;7275;50.328;8.720;2022-09-20T11:50:32;100288.25;;;26.85;32.48
14383;BME280;7275;50.328;8.720;2022-09-20T11:53:10;100292.84;;;26.47;32.75
14383;BME280;7275;50.328;8.720;2022-09-20T11:55:41;100292.41;;;26.13;32.79
14383;BME280;7275;50.328;8.720;2022-09-20T11:58:15;100303.19;;;25.84;33.22
14383;BME280;7275;50.328;8.720;2022-09-20T12:00:46;100297.41;;;25.68;33.34
14383;BME280;7275;50.328;8.720;2022-09-20T12:03:27;100284.34;;;25.92;33.13
14383;BME280;7275;50.328;8.720;2022-09-20T12:05:58;100284.34;;;25.92;33.16
14383;BME280;7275;50.328;8.720;2022-09-20T12:08:28;100289.03;;;25.71;33.10
14383;BME280;7275;50.328;8.720;2022-09-20T12:10:59;100290.69;;;25.53;33.07
14383;BME280;7275;50.328;8.720;2022-09-20T12:13:30;100283.03;;;25.87;33.14
14383;BME280;7275;50.328;8.720;2022-09-20T12:16:02;100274.00;;;27.20;32.49
14383;BME280;7275;50.328;8.720;2022-09-20T12:19:00;100278.63;;;27.92;32.28
14383;BME280;7275;50.328;8.720;2022-09-20T12:21:28;100274.28;;;27.81;31.33
14383;BME280;7275;50.328;8.720;2022-09-20T12:26:48;100281.69;;;27.25;31.46
14383;BME280;7275;50.328;8.720;2022-09-20T12:29:53;100272.38;;;26.90;31.95
14383;BME280;7275;50.328;8.720;2022-09-20T12:32:41;100275.84;;;26.73;31.58
14383;BME280;7275;50.328;8.720;2022-09-20T12:38:36;100269.44;;;26.55;31.77
14383;BME280;7275;50.328;8.720;2022-09-20T12:41:09;100268.97;;;26.69;31.03
14383;BME280;7275;50.328;8.720;2022-09-20T12:43:51;100260.78;;;26.98;31.14
14383;BME280;7275;50.328;8.720;2022-09-20T12:46:21;100254.72;;;27.78;30.74
14383;BME280;7275;50.328;8.720;2022-09-20T12:48:50;100257.72;;;29.32;30.17
14383;BME280;7275;50.328;8.720;2022-09-20T12:51:36;100254.88;;;31.28;28.27
14383;BME280;7275;50.328;8.720;2022-09-20T12:54:22;100244.09;;;33.09;27.08
14383;BME280;7275;50.328;8.720;2022-09-20T12:56:49;100245.25;;;34.51;25.63
14383;BME280;7275;50.328;8.720;2022-09-20T12:59:21;100235.31;;;35.74;25.05
14383;BME280;7275;50.328;8.720;2022-09-20T13:01:49;100244.03;;;36.77;23.50
14383;BME280;7275;50.328;8.720;2022-09-20T13:04:50;100239.44;;;37.68;23.31
14383;BME280;7275;50.328;8.720;2022-09-20T13:07:45;100244.00;;;38.56;22.78
14383;BME280;7275;50.328;8.720;2022-09-20T13:10:25;100235.09;;;39.28;21.94
14383;BME280;7275;50.328;8.720;2022-09-20T13:13:20;100232.97;;;39.96;21.95
14383;BME280;7275;50.328;8.720;2022-09-20T13:15:52;100229.69;;;40.58;20.70
14383;BME280;7275;50.328;8.720;2022-09-20T13:18:21;100237.72;;;41.01;19.31
14383;BME280;7275;50.328;8.720;2022-09-20T13:20:50;100240.16;;;41.32;19.12
14383;BME280;7275;50.328;8.720;2022-09-20T13:23:23;100241.56;;;41.58;19.09
14383;BME280;7275;50.328;8.720;2022-09-20T13:25:55;100225.19;;;41.84;18.78
14383;BME280;7275;50.328;8.720;2022-09-20T13:28:36;100235.50;;;42.00;19.11
14383;BME280;7275;50.328;8.720;2022-09-20T13:31:26;100236.47;;;42.06;19.16
14383;BME280;7275;50.328;8.720;2022-09-20T13:33:54;100231.03;;;42.28;18.48
14383;BME280;7275;50.328;8.720;2022-09-20T13:36:38;100232.38;;;42.53;17.76
14383;BME280;7275;50.328;8.720;2022-09-20T13:39:06;100226.88;;;42.75;17.58
14383;BME280;7275;50.328;8.720;2022-09-20T13:41:36;100227.28;;;42.83;16.87
14383;BME280;7275;50.328;8.720;2022-09-20T13:44:04;100231.63;;;42.30;16.77
14383;BME280;7275;50.328;8.720;2022-09-20T13:46:32;100236.13;;;41.16;17.49
14383;BME280;7275;50.328;8.720;2022-09-20T13:49:12;100226.38;;;39.78;17.59
14383;BME280;7275;50.328;8.720;2022-09-20T13:51:42;100230.59;;;38.59;18.10
14383;BME280;7275;50.328;8.720;2022-09-20T13:54:18;100236.56;;;37.36;18.01
14383;BME280;7275;50.328;8.720;2022-09-20T13:56:49;100237.41;;;36.32;19.46
14383;BME280;7275;50.328;8.720;2022-09-20T13:59:18;100234.28;;;35.75;19.86
14383;BME280;7275;50.328;8.720;2022-09-20T14:01:48;100238.72;;;35.35;19.29
14383;BME280;7275;50.328;8.720;2022-09-20T14:04:19;100246.97;;;34.73;20.20
14383;BME280;7275;50.328;8.720;2022-09-20T14:06:48;100235.00;;;34.59;20.02
14383;BME280;7275;50.328;8.720;2022-09-20T14:09:20;100233.41;;;34.99;20.67
14383;BME280;7275;50.328;8.720;2022-09-20T14:11:51;100223.19;;;35.55;20.30
14383;BME280;7275;50.328;8.720;2022-09-20T14:14:20;100231.25;;;36.10;19.92
14383;BME280;7275;50.328;8.720;2022-09-20T14:16:49;100234.72;;;36.58;19.62